Time;durP1;ratioP1;P1;durP2;ratioP2;P2;SDS_P1;SDS_P2;PMS_P1;PMS_P2;Temp;Humidity;BMP_temperature;BMP_pressure;BME280_temperature;BME280_humidity;BME280_pressure;Samples;Min_cycle;Max_cycle;Signal;HPM_P1;HPM_P2
2022/12/12 00:02:20;;;;;;;34.37;23.30;;;;;;;-2.24;100.00;100902.03;5277934;28;20047;-81
2022/12/12 00:04:55;;;;;;;31.67;20.60;;;;;;;-2.33;100.00;100907.66;5297948;28;20035;-82
2022/12/12 00:07:27;;;;;;;34.17;22.50;;;;;;;-2.39;100.00;100904.84;5299603;28;20029;-81
2022/12/12 00:09:58;;;;;;;32.93;21.37;;;;;;;-2.48;100.00;100910.44;5299996;28;20052;-82
2022/12/12 00:12:30;;;;;;;31.03;20.10;;;;;;;-2.52;100.00;100903.44;5300862;28;20071;-81
2022/12/12 00:15:01;;;;;;;34.47;21.57;;;;;;;-2.60;100.00;100913.31;5299000;28;20033;-81
2022/12/12 00:17:33;;;;;;;36.43;22.23;;;;;;;-2.68;100.00;100901.94;5297028;28;20089;-82
2022/12/12 00:20:05;;;;;;;38.17;23.97;;;;;;;-2.75;100.00;100907.59;5298622;28;20494;-80
2022/12/12 00:22:36;;;;;;;35.70;23.10;;;;;;;-2.81;100.00;100904.75;5297798;28;20558;-82
2022/12/12 00:25:08;;;;;;;33.47;21.90;;;;;;;-2.84;100.00;100904.63;5298006;28;20084;-82
2022/12/12 00:27:39;;;;;;;38.67;22.60;;;;;;;-2.87;100.00;100901.94;5299771;28;20364;-82
2022/12/12 00:30:11;;;;;;;37.97;23.63;;;;;;;-2.95;100.00;100907.59;5303336;28;20294;-83
2022/12/12 00:32:43;;;;;;;35.17;21.67;;;;;;;-2.95;100.00;100906.69;5303306;28;20123;-83
2022/12/12 00:35:14;;;;;;;31.40;21.60;;;;;;;-3.01;100.00;100908.97;5283085;28;20050;-82
2022/12/12 00:37:45;;;;;;;36.87;24.17;;;;;;;-3.04;100.00;100906.28;5292491;28;20033;-81
2022/12/12 00:40:17;;;;;;;36.20;21.87;;;;;;;-3.08;100.00;100905.28;5290060;28;20039;-82
2022/12/12 00:42:48;;;;;;;36.40;24.93;;;;;;;-3.11;100.00;100907.69;5289578;28;20043;-82
2022/12/12 00:45:20;;;;;;;38.90;23.30;;;;;;;-3.13;100.00;100907.63;5289139;28;20383;-82
2022/12/12 00:47:51;;;;;;;34.03;21.43;;;;;;;-3.14;100.00;100913.56;5289256;28;20051;-81
2022/12/12 00:50:22;;;;;;;38.50;24.13;;;;;;;-3.16;100.00;100907.50;5289181;28;20040;-82
2022/12/12 00:52:55;;;;;;;38.23;22.40;;;;;;;-3.16;100.00;100911.72;5288635;28;20524;-82
2022/12/12 00:55:27;;;;;;;35.80;22.17;;;;;;;-3.18;100.00;100910.78;5288425;28;20029;-81
2022/12/12 00:57:59;;;;;;;38.03;22.50;;;;;;;-3.18;100.00;100910.78;5287407;28;20538;-81
2022/12/12 01:00:31;;;;;;;36.80;23.37;;;;;;;-3.23;100.00;100915.69;5287784;28;20031;-81
2022/12/12 01:03:02;;;;;;;34.67;22.30;;;;;;;-3.21;100.00;100915.75;5287705;28;20035;-82
2022/12/12 01:05:34;;;;;;;39.93;23.37;;;;;;;-3.27;100.00;100920.56;5287336;28;20036;-82
2022/12/12 01:08:05;;;;;;;36.07;22.83;;;;;;;-3.33;100.00;100931.38;5287492;28;20036;-81
2022/12/12 01:10:37;;;;;;;39.77;21.93;;;;;;;-3.34;100.00;100922.84;5269003;28;20078;-80
2022/12/12 01:13:08;;;;;;;37.40;24.00;;;;;;;-3.38;100.00;100923.50;5286910;28;20043;-80
2022/12/12 01:15:40;;;;;;;39.53;23.37;;;;;;;-3.39;100.00;100938.75;5287276;28;20029;-81
2022/12/12 01:18:13;;;;;;;39.47;22.80;;;;;;;-3.44;100.00;100933.44;5287747;28;20039;-81
2022/12/12 01:20:45;;;;;;;41.15;24.60;;;;;;;-3.46;100.00;100940.13;5287263;28;20025;-81
2022/12/12 01:23:16;;;;;;;37.60;23.20;;;;;;;-3.41;100.00;100935.22;5287752;28;20028;-81
2022/12/12 01:25:48;;;;;;;41.23;25.63;;;;;;;-3.41;100.00;100941.22;5269440;28;20099;-81
2022/12/12 01:28:19;;;;;;;38.83;23.87;;;;;;;-3.41;100.00;100940.31;5288079;28;20510;-81
2022/12/12 01:30:50;;;;;;;40.50;24.07;;;;;;;-3.45;100.00;100952.06;5287895;28;20060;-82
2022/12/12 01:33:22;;;;;;;41.43;26.10;;;;;;;-3.49;100.00;100955.28;5287886;28;20028;-82
2022/12/12 01:35:54;;;;;;;37.40;22.93;;;;;;;-3.56;100.00;100963.41;5287278;28;20024;-82
2022/12/12 01:38:25;;;;;;;34.00;25.08;;;;;;;-3.55;100.00;100949.88;5286927;28;20016;-82
2022/12/12 01:40:57;;;;;;;37.93;23.77;;;;;;;-3.55;100.00;100955.00;5286964;28;20028;-82
2022/12/12 01:43:29;;;;;;;42.20;24.33;;;;;;;-3.59;100.00;100956.53;5270086;28;20028;-82
2022/12/12 01:46:20;;;;;;;37.72;25.17;;;;;;;-3.62;100.00;100952.94;5269167;28;20039;-82
2022/12/12 01:48:58;;;;;;;40.08;26.00;;;;;;;-3.66;100.00;100965.53;5286963;28;20028;-81
2022/12/12 01:51:30;;;;;;;35.53;23.63;;;;;;;-3.68;100.00;100959.50;5269324;28;20035;-82
2022/12/12 01:54:07;;;;;;;38.88;25.38;;;;;;;-3.67;100.00;100960.34;5286274;28;20109;-82
2022/12/12 01:56:41;;;;;;;40.70;23.67;;;;;;;-3.72;100.00;100959.28;5286693;28;20021;-82
2022/12/12 01:59:16;;;;;;;44.15;27.05;;;;;;;-3.71;100.00;100963.56;5287097;28;20060;-83
2022/12/12 02:01:49;;;;;;;39.15;24.83;;;;;;;-3.72;100.00;100959.28;5286798;28;20051;-82
2022/12/12 02:04:22;;;;;;;41.13;24.52;;;;;;;-3.77;100.00;100966.69;5268740;28;20036;-82
2022/12/12 02:06:54;;;;;;;;;;;;;;;-3.82;100.00;100970.69;5269009;28;20106;-82
2022/12/12 02:09:26;;;;;;;45.65;26.23;;;;;;;-3.79;100.00;100969.97;5269274;28;19942;-82
2022/12/12 02:11:58;;;;;;;39.85;25.65;;;;;;;-3.79;100.00;100970.84;5286507;28;20391;-81
2022/12/12 02:14:33;;;;;;;43.70;27.00;;;;;;;-3.77;100.00;100968.38;5286530;28;20032;-82
2022/12/12 02:17:21;;;;;;;46.63;27.25;;;;;;;-3.76;100.00;100972.69;5286104;28;20082;-82
2022/12/12 02:20:14;;;;;;;39.00;25.25;;;;;;;-3.82;100.00;100965.59;5285750;28;20032;-81
2022/12/12 02:23:16;;;;;;;42.45;25.27;;;;;;;-3.85;100.00;100971.44;5286387;28;20478;-81
2022/12/12 02:26:29;;;;;;;43.83;26.13;;;;;;;-3.90;100.00;100977.09;5287418;28;20035;-81
2022/12/12 02:29:29;;;;;;;44.55;26.17;;;;;;;-3.97;100.00;100970.81;5288388;28;20024;-81
2022/12/12 02:32:08;;;;;;;43.00;25.02;;;;;;;-4.01;100.00;100979.09;5287912;28;20044;-81
2022/12/12 02:34:42;;;;;;;41.55;26.95;;;;;;;-4.05;100.00;100978.09;5286498;28;20122;-81
2022/12/12 02:37:49;;;;;;;43.80;26.20;;;;;;;-4.07;100.00;100973.75;5285951;28;20040;-81
2022/12/12 02:40:34;;;;;;;36.28;24.02;;;;;;;-4.08;100.00;100980.47;5275403;28;20075;-81
2022/12/12 02:43:09;;;;;;;43.90;24.38;;;;;;;-4.11;100.00;100979.47;5284974;28;20232;-81
2022/12/12 02:46:15;;;;;;;38.63;24.90;;;;;;;-4.18;100.00;100975.75;5286478;28;20351;-81
2022/12/12 02:48:57;;;;;;;40.78;25.38;;;;;;;-4.21;100.00;100973.91;5285299;28;20035;-80
2022/12/12 02:51:30;;;;;;;44.75;26.10;;;;;;;-4.20;100.00;100977.34;5287045;28;20025;-80
2022/12/12 02:54:13;;;;;;;45.40;26.42;;;;;;;-4.22;100.00;100976.38;5285221;28;20165;-80
2022/12/12 02:56:59;;;;;;;41.90;25.38;;;;;;;-4.26;100.00;100977.03;5285676;28;20115;-80
2022/12/12 02:59:30;;;;;;;40.17;25.05;;;;;;;-4.28;100.00;100976.94;5288310;28;20056;-80
2022/12/12 03:02:13;;;;;;;45.40;26.57;;;;;;;-4.27;100.00;100975.28;5268258;28;20499;-80
2022/12/12 03:08:00;;;;;;;44.60;25.38;;;;;;;-4.33;100.00;100968.22;5296969;28;20044;-80
2022/12/12 03:10:57;;;;;;;45.65;26.88;;;;;;;-4.34;100.00;100969.00;5302250;28;20054;-81
2022/12/12 03:14:06;;;;;;;41.22;25.48;;;;;;;-4.35;100.00;100968.91;5294355;28;20039;-81
2022/12/12 03:16:46;;;;;;;39.75;24.08;;;;;;;-4.43;100.00;100966.88;5293159;28;20036;-81
2022/12/12 03:19:28;;;;;;;42.00;25.48;;;;;;;-4.46;100.00;100968.38;5292748;28;20032;-80
2022/12/12 03:22:12;;;;;;;43.78;26.80;;;;;;;-4.52;100.00;100962.97;5292616;28;20048;-80
2022/12/12 03:24:56;;;;;;;44.45;25.35;;;;;;;-4.53;100.00;100967.19;5292592;28;20033;-80
2022/12/12 03:28:04;;;;;;;42.92;25.02;;;;;;;-4.53;100.00;100962.09;5291692;28;20529;-80
2022/12/12 03:30:42;;;;;;;40.78;25.02;;;;;;;-4.58;100.00;100964.41;5203595;28;20047;-79
2022/12/12 03:33:26;;;;;;;42.72;26.52;;;;;;;-4.62;100.00;100959.06;5291960;28;20092;-79
2022/12/12 03:36:14;;;;;;;46.67;26.42;;;;;;;-4.63;100.00;100960.75;5291511;28;20029;-79
2022/12/12 03:38:55;;;;;;;38.25;23.33;;;;;;;-4.67;100.00;100963.97;5279244;28;20035;-81
2022/12/12 03:41:35;;;;;;;47.35;26.40;;;;;;;-4.74;100.00;100963.56;5295894;28;20036;-79
2022/12/12 03:44:16;;;;;;;51.10;26.42;;;;;;;-4.72;100.00;100961.97;5279246;28;20078;-80
2022/12/12 03:46:53;;;;;;;43.90;23.67;;;;;;;-4.72;100.00;100969.59;5293164;28;20034;-80
2022/12/12 03:49:41;;;;;;;42.13;24.95;;;;;;;-4.76;100.00;100968.56;5274628;28;20444;-80
2022/12/12 03:52:29;;;;;;;43.05;24.58;;;;;;;-4.82;100.00;100974.19;5292871;28;20107;-80
2022/12/12 03:55:11;;;;;;;44.85;24.25;;;;;;;-4.83;100.00;100966.47;5292476;28;20035;-80
2022/12/12 03:57:54;;;;;;;43.35;23.33;;;;;;;-4.88;100.00;100967.91;5293217;28;20053;-81
2022/12/12 04:00:28;;;;;;;39.63;23.45;;;;;;;-4.91;100.00;100976.28;5293548;28;20040;-82
2022/12/12 04:03:38;;;;;;;41.17;23.13;;;;;;;-4.94;100.00;100968.47;5294008;28;20067;-82
2022/12/12 04:06:27;;;;;;;41.72;24.27;;;;;;;-4.94;100.00;100968.47;5236171;28;20491;-81
2022/12/12 04:15:14;;;;;;;41.35;25.50;;;;;;;-5.06;100.00;100977.97;5292215;28;20037;-82
2022/12/12 04:17:54;;;;;;;42.53;25.40;;;;;;;-5.07;100.00;100976.22;5274534;28;20043;-81
2022/12/12 04:23:38;;;;;;;42.45;24.08;;;;;;;-5.15;100.00;100978.38;5292013;28;20040;-82
2022/12/12 04:26:39;;;;;;;36.80;22.55;;;;;;;-5.18;100.00;100986.69;5274129;28;20045;-82
2022/12/12 04:29:23;;;;;;;44.72;24.38;;;;;;;-5.21;100.00;100985.66;5260045;28;20072;-82
2022/12/12 04:31:59;;;;;;;41.88;24.55;;;;;;;-5.26;100.00;100995.59;5292060;28;20475;-82
2022/12/12 04:35:01;;;;;;;39.53;23.98;;;;;;;-5.34;100.00;100996.84;5292131;28;20349;-82
2022/12/12 04:37:44;;;;;;;40.22;23.00;;;;;;;-5.35;100.00;101000.16;5292700;28;20036;-82
2022/12/12 04:40:24;;;;;;;44.15;25.15;;;;;;;-5.38;100.00;100997.44;5300705;28;20031;-82
2022/12/12 04:43:02;;;;;;;43.38;24.88;;;;;;;-5.41;100.00;101005.78;5295256;28;20145;-81
2022/12/12 04:45:37;;;;;;;41.85;24.50;;;;;;;-5.38;100.00;101005.94;5293199;28;20483;-82
2022/12/12 04:48:14;;;;;;;47.85;26.00;;;;;;;-5.40;100.00;101001.56;5290464;28;20037;-83
2022/12/12 04:50:49;;;;;;;43.95;23.90;;;;;;;-5.43;100.00;101006.47;5288903;28;20345;-82
2022/12/12 04:53:28;;;;;;;40.88;23.35;;;;;;;-5.45;100.00;101008.06;5288212;28;20028;-81
2022/12/12 04:56:06;;;;;;;44.90;26.75;;;;;;;-5.47;100.00;101005.44;5288188;28;20075;-82
2022/12/12 04:58:39;;;;;;;40.85;24.10;;;;;;;-5.51;100.00;101004.38;5287862;28;20080;-82
2022/12/12 05:01:15;;;;;;;;;;;;;;;-5.58;100.00;101006.50;5289131;28;20379;-82
2022/12/12 05:04:01;;;;;;;43.00;22.38;;;;;;;-5.55;100.00;101011.78;5287770;28;19970;-83
2022/12/12 05:06:44;;;;;;;44.08;25.00;;;;;;;-5.59;100.00;101008.16;5288643;28;20031;-82
2022/12/12 05:09:17;;;;;;;40.53;23.63;;;;;;;-5.59;100.00;101002.22;5288815;28;20029;-83
2022/12/12 05:11:49;;;;;;;42.50;25.00;;;;;;;-5.60;100.00;101003.88;5287707;28;20036;-84
2022/12/12 05:14:20;;;;;;;39.17;22.43;;;;;;;-5.66;100.00;101001.00;5288784;28;20128;-82
2022/12/12 05:16:54;;;;;;;40.00;23.83;;;;;;;-5.67;100.00;101001.78;5287954;28;20115;-81
2022/12/12 05:19:25;;;;;;;43.00;23.52;;;;;;;-5.67;100.00;100999.22;5288126;28;20479;-81
2022/12/12 05:21:57;;;;;;;40.13;23.00;;;;;;;-5.71;100.00;100999.88;5287750;28;20033;-80
2022/12/12 05:24:30;;;;;;;41.53;24.07;;;;;;;-5.73;100.00;101003.97;5288605;28;20056;-80
2022/12/12 05:27:01;;;;;;;46.03;24.85;;;;;;;-5.77;100.00;101005.47;5288821;28;20089;-80
2022/12/12 05:29:33;;;;;;;47.23;25.33;;;;;;;-5.73;100.00;101002.31;5290578;28;20084;-80
2022/12/12 05:32:04;;;;;;;45.63;25.43;;;;;;;-5.68;100.00;101010.22;5275160;28;20028;-79
2022/12/12 05:34:35;;;;;;;45.90;24.30;;;;;;;-5.69;100.00;101009.31;5294261;28;20058;-80
2022/12/12 05:37:07;;;;;;;39.57;24.07;;;;;;;-5.70;100.00;101009.22;5295213;28;20025;-79
2022/12/12 05:39:38;;;;;;;48.80;26.33;;;;;;;-5.74;100.00;101010.72;5295181;28;20035;-80
2022/12/12 05:42:10;;;;;;;45.97;23.60;;;;;;;-5.74;100.00;101015.78;5295424;28;20097;-80
2022/12/12 05:44:41;;;;;;;45.87;24.77;;;;;;;-5.72;100.00;101013.34;5291550;28;20028;-79
2022/12/12 05:47:13;;;;;;;44.97;24.63;;;;;;;-5.73;100.00;101003.97;5290026;28;20299;-78
2022/12/12 05:49:44;;;;;;;47.90;23.97;;;;;;;-5.71;100.00;101015.97;5299349;28;20012;-77
2022/12/12 05:52:16;;;;;;;41.33;24.03;;;;;;;-5.73;100.00;101016.66;5305436;28;20028;-78
2022/12/12 05:54:48;;;;;;;42.57;22.97;;;;;;;-5.77;100.00;101024.91;5307649;28;20024;-79
2022/12/12 05:57:19;;;;;;;44.70;25.48;;;;;;;-5.76;100.00;101016.53;5305272;28;20024;-78
2022/12/12 05:59:51;;;;;;;50.60;24.93;;;;;;;-5.85;100.00;101016.84;5292668;28;20040;-78
2022/12/12 06:02:22;;;;;;;42.13;25.37;;;;;;;-5.89;100.00;101014.94;5290091;28;20382;-78
2022/12/12 06:04:53;;;;;;;41.43;23.87;;;;;;;-5.97;100.00;101022.16;5289513;28;20089;-78
2022/12/12 06:07:25;;;;;;;47.93;24.07;;;;;;;-5.97;100.00;101022.16;5255175;28;20039;-78
2022/12/12 06:09:56;;;;;;;47.57;24.43;;;;;;;-5.97;100.00;101021.25;5286494;28;20025;-78
2022/12/12 06:12:28;;;;;;;47.87;24.60;;;;;;;-5.99;100.00;101026.22;5269611;28;20025;-77
2022/12/12 06:14:59;;;;;;;44.67;24.77;;;;;;;-5.94;100.00;101032.44;5268854;28;20033;-78
2022/12/12 06:17:31;;;;;;;48.23;26.30;;;;;;;-5.90;100.00;101030.94;5285190;28;20126;-78
2022/12/12 06:20:03;;;;;;;43.03;22.43;;;;;;;-5.89;100.00;101022.56;5268655;28;20060;-78
2022/12/12 06:22:35;;;;;;;55.83;27.48;;;;;;;-5.79;100.00;101026.50;5268663;28;20127;-78
2022/12/12 06:25:07;;;;;;;47.20;25.55;;;;;;;-5.81;100.00;101028.06;5287878;28;20067;-78
2022/12/12 06:27:39;;;;;;;48.45;25.80;;;;;;;-5.77;100.00;101035.06;5292078;28;20037;-78
2022/12/12 06:30:10;;;;;;;49.57;26.17;;;;;;;-5.73;100.00;101031.91;5300362;28;20032;-77
2022/12/12 06:32:42;;;;;;;51.43;24.87;;;;;;;-5.71;100.00;101031.22;5282612;28;20028;-78
2022/12/12 06:35:13;;;;;;;55.03;25.77;;;;;;;-5.69;100.00;101036.38;5293598;28;20262;-79
2022/12/12 06:37:47;;;;;;;50.83;24.90;;;;;;;-5.71;100.00;101031.22;5275287;28;20040;-79
2022/12/12 06:40:18;;;;;;;49.20;24.38;;;;;;;-5.71;100.00;101036.28;5292205;28;20115;-77
2022/12/12 06:42:50;;;;;;;48.27;24.43;;;;;;;-5.75;100.00;101036.88;5294085;28;20147;-77
2022/12/12 06:45:21;;;;;;;51.80;24.40;;;;;;;-5.75;100.00;101038.56;5292607;28;20487;-77
2022/12/12 06:47:54;;;;;;;55.00;26.33;;;;;;;-5.80;100.00;101039.97;5292558;28;20036;-76
2022/12/12 06:50:25;;;;;;;50.05;25.92;;;;;;;-5.77;100.00;101038.47;5260364;28;20040;-77
2022/12/12 06:52:57;;;;;;;55.73;28.07;;;;;;;-5.77;100.00;101043.56;5275566;28;20333;-78
2022/12/12 06:55:28;;;;;;;50.70;24.47;;;;;;;-5.75;100.00;101046.19;5295531;28;20439;-76
2022/12/12 06:58:00;;;;;;;51.27;26.50;;;;;;;-5.77;100.00;101046.09;5272550;28;20057;-77
2022/12/12 07:00:31;;;;;;;51.50;25.53;;;;;;;-5.74;100.00;101042.88;5271199;28;20033;-77
2022/12/12 07:03:03;;;;;;;51.23;24.87;;;;;;;-5.77;100.00;101042.69;5270631;28;20033;-77
2022/12/12 07:05:34;;;;;;;55.73;25.47;;;;;;;-5.74;100.00;101048.81;5270409;28;20107;-77
2022/12/12 07:08:06;;;;;;;53.63;27.10;;;;;;;-5.77;100.00;101057.91;5270089;28;20055;-77
2022/12/12 07:10:37;;;;;;;52.65;25.08;;;;;;;-5.77;100.00;101056.25;5268154;28;20037;-80
2022/12/12 07:13:09;;;;;;;55.23;25.17;;;;;;;-5.77;100.00;101060.47;5250659;28;20119;-76
2022/12/12 07:15:49;;;;;;;48.00;23.08;;;;;;;-5.75;100.00;101063.94;5267663;28;20078;-77
2022/12/12 07:18:20;;;;;;;46.47;23.55;;;;;;;-5.73;100.00;101068.34;5267139;28;20036;-77
2022/12/12 07:20:52;;;;;;;52.70;24.00;;;;;;;-5.74;100.00;101061.50;5265752;28;20033;-78
2022/12/12 07:23:23;;;;;;;52.03;24.03;;;;;;;-5.79;100.00;101062.03;5264592;28;20469;-78
2022/12/12 07:25:55;;;;;;;44.93;22.40;;;;;;;-5.82;100.00;101072.03;5264419;28;20078;-79
2022/12/12 07:28:26;;;;;;;48.33;23.27;;;;;;;-5.89;100.00;101075.88;5264372;28;20053;-78
2022/12/12 07:31:00;;;;;;;45.63;22.97;;;;;;;-5.95;100.00;101071.28;5265006;28;20055;-79
2022/12/12 07:33:31;;;;;;;46.45;23.38;;;;;;;-5.98;100.00;101077.91;5266278;28;20115;-79
2022/12/12 07:36:03;;;;;;;51.93;23.07;;;;;;;-6.06;100.00;101077.44;5264951;28;20048;-79
2022/12/12 07:38:35;;;;;;;46.88;23.83;;;;;;;-6.07;100.00;101075.69;5265889;28;20036;-78
2022/12/12 07:41:12;;;;;;;47.55;23.77;;;;;;;-6.07;100.00;101080.75;5264093;28;20087;-78
2022/12/12 07:43:44;;;;;;;48.15;22.10;;;;;;;-6.08;100.00;101081.56;5270555;28;20028;-76
2022/12/12 07:46:19;;;;;;;42.50;21.30;;;;;;;-6.14;100.00;101076.97;5275141;28;20056;-76
2022/12/12 07:48:51;;;;;;;48.60;24.23;;;;;;;-6.12;100.00;101092.31;5273113;28;20033;-77
2022/12/12 07:51:23;;;;;;;46.95;23.05;;;;;;;-6.13;100.00;101086.34;5270543;28;20025;-77
2022/12/12 07:53:55;;;;;;;48.90;22.93;;;;;;;-6.12;100.00;101090.63;5270804;28;20044;-77
2022/12/12 07:56:26;;;;;;;42.10;20.67;;;;;;;-6.21;100.00;101096.81;5266039;28;20392;-77
2022/12/12 07:58:57;;;;;;;52.60;23.63;;;;;;;-6.14;100.00;101096.41;5282864;28;20388;-77
2022/12/12 08:01:29;;;;;;;50.50;23.50;;;;;;;-6.13;100.00;101100.72;5287021;28;20082;-78
2022/12/12 08:04:00;;;;;;;43.77;22.97;;;;;;;-6.10;100.00;101099.22;5288218;28;20033;-77
2022/12/12 08:06:32;;;;;;;51.33;23.87;;;;;;;-6.04;100.00;101103.78;5253512;28;20020;-77
2022/12/12 08:09:03;;;;;;;53.00;24.87;;;;;;;-6.05;100.00;101119.81;5268950;28;20050;-77
2022/12/12 08:11:35;;;;;;;57.40;23.10;;;;;;;-6.06;100.00;101110.44;5268709;28;20032;-78
2022/12/12 08:14:07;;;;;;;51.30;22.43;;;;;;;-6.06;100.00;101113.84;5268575;28;20434;-77
2022/12/12 08:16:38;;;;;;;49.95;21.63;;;;;;;-5.99;100.00;101121.81;5284529;28;20035;-78
2022/12/12 08:19:10;;;;;;;53.77;24.13;;;;;;;-5.95;100.00;101118.66;5285611;28;20111;-78
2022/12/12 08:21:43;;;;;;;60.93;25.37;;;;;;;-5.88;100.00;101116.56;5285601;28;20160;-78
2022/12/12 08:24:15;;;;;;;51.83;23.80;;;;;;;-5.80;100.00;101118.69;5288040;28;20097;-78
2022/12/12 08:26:49;;;;;;;52.15;24.73;;;;;;;-5.75;100.00;101123.22;5270825;28;20130;-78
2022/12/12 08:29:21;;;;;;;54.35;24.83;;;;;;;-5.68;100.00;101116.88;5288702;28;20040;-78
2022/12/12 08:31:52;;;;;;;48.40;22.43;;;;;;;-5.61;100.00;101118.09;5270965;28;20028;-78
2022/12/12 08:34:24;;;;;;;49.60;23.33;;;;;;;-5.57;100.00;101120.00;5290232;28;20037;-77
2022/12/12 08:36:56;;;;;;;53.13;26.38;;;;;;;-5.50;100.00;101122.13;5288331;28;20127;-78
2022/12/12 08:39:27;;;;;;;54.87;23.20;;;;;;;-5.44;100.00;101125.03;5270547;28;20029;-78
2022/12/12 08:42:00;;;;;;;55.53;24.90;;;;;;;-5.35;100.00;101122.97;5289602;28;20044;-78
2022/12/12 08:44:31;;;;;;;53.00;24.35;;;;;;;-5.13;100.00;101131.84;5288326;28;20112;-77
2022/12/12 08:47:03;;;;;;;52.60;24.90;;;;;;;-4.91;100.00;101125.38;5273765;28;20109;-77
2022/12/12 08:49:34;;;;;;;55.20;25.27;;;;;;;-4.63;100.00;101122.69;5289695;28;20028;-78
2022/12/12 08:52:08;;;;;;;56.20;27.57;;;;;;;-4.37;100.00;101128.31;5269458;28;20029;-77
2022/12/12 08:54:40;;;;;;;53.35;24.30;;;;;;;-4.19;100.00;101129.25;5287377;28;20245;-78
2022/12/12 08:57:11;;;;;;;52.67;21.63;;;;;;;-3.96;100.00;101127.94;5252101;28;20137;-78
2022/12/12 08:59:43;;;;;;;43.40;21.63;;;;;;;-3.74;100.00;101129.88;5287153;28;20032;-78
2022/12/12 09:02:14;;;;;;;41.80;20.73;;;;;;;-3.56;100.00;101136.69;5287224;28;20452;-78
2022/12/12 09:04:46;;;;;;;40.07;19.37;;;;;;;-3.34;100.00;101131.00;5269217;28;20044;-79
2022/12/12 09:07:17;;;;;;;39.77;20.40;;;;;;;-3.23;100.00;101134.09;5271216;28;20059;-78
2022/12/12 09:09:49;;;;;;;34.60;18.67;;;;;;;-2.96;100.00;101137.97;5273318;28;20036;-79
2022/12/12 09:12:20;;;;;;;35.07;18.63;;;;;;;-2.68;100.00;101144.34;5268559;28;20422;-78
2022/12/12 09:14:51;;;;;;;33.10;18.40;;;;;;;-2.58;100.00;101141.44;5269103;28;20056;-78
2022/12/12 09:17:23;;;;;;;35.00;17.30;;;;;;;-2.40;100.00;101148.16;5268899;28;20040;-79
2022/12/12 09:19:55;;;;;;;31.00;17.45;;;;;;;-2.17;100.00;101149.22;5286409;28;20035;-77
2022/12/12 09:22:26;;;;;;;30.23;17.43;;;;;;;-1.95;100.00;101145.06;5286279;28;20436;-79
2022/12/12 09:24:59;;;;;;;25.97;16.63;;;;;;;-1.89;100.00;101141.09;5269367;28;20070;-77
2022/12/12 09:27:30;;;;;;;32.42;17.58;;;;;;;-1.60;100.00;101146.56;5286721;28;20112;-77
2022/12/12 09:30:02;;;;;;;29.70;16.87;;;;;;;-1.50;98.99;101146.16;5286861;28;20115;-79
2022/12/12 09:32:33;;;;;;;31.23;17.60;;;;;;;-1.33;97.46;101149.41;5287130;28;20107;-80
2022/12/12 09:35:05;;;;;;;29.60;16.87;;;;;;;-1.16;97.88;101146.66;5268237;28;20115;-80
2022/12/12 09:37:37;;;;;;;28.37;17.07;;;;;;;-0.85;96.98;101150.44;5269452;28;20044;-80
2022/12/12 09:40:20;;;;;;;26.27;15.90;;;;;;;-0.75;95.43;101138.09;5252577;28;20056;-80
2022/12/12 09:42:51;;;;;;;;;;;;;;;-0.19;100.00;101135.91;5287496;28;20028;-80
2022/12/12 09:45:22;;;;;;;26.35;15.38;;;;;;;-0.48;96.97;101139.97;5288054;28;19954;-80
2022/12/12 09:47:59;;;;;;;23.20;16.00;;;;;;;-0.16;96.09;101145.41;5270152;28;20044;-80
2022/12/12 09:50:37;;;;;;;29.17;15.75;;;;;;;0.07;91.25;101151.38;5288789;28;20025;-79
2022/12/12 09:53:12;;;;;;;26.15;15.60;;;;;;;0.26;90.17;101142.66;5290133;28;20024;-80
2022/12/12 09:56:11;;;;;;;23.52;14.30;;;;;;;0.49;88.03;101142.56;5291699;28;20035;-80
2022/12/12 09:58:57;;;;;;;22.25;14.27;;;;;;;0.43;86.90;101139.78;5282613;28;20120;-80
2022/12/12 10:01:53;;;;;;;23.02;15.20;;;;;;;0.87;86.36;101133.56;5283376;28;20054;-81
2022/12/12 10:04:38;;;;;;;25.52;15.15;;;;;;;0.91;80.95;101137.09;5295035;28;20124;-78
2022/12/12 10:07:25;;;;;;;23.35;15.10;;;;;;;1.19;78.46;101138.88;5292616;28;20107;-79
2022/12/12 10:10:24;;;;;;;23.45;14.18;;;;;;;1.61;81.57;101140.09;5293453;28;20112;-78
2022/12/12 10:12:58;;;;;;;21.40;14.18;;;;;;;1.78;76.79;101138.03;5277038;28;20032;-79
2022/12/12 10:15:38;;;;;;;23.08;14.25;;;;;;;2.12;75.30;101139.81;5294124;28;20391;-79
2022/12/12 10:18:33;;;;;;;23.98;15.48;;;;;;;2.27;73.20;101131.69;5277793;28;20029;-80
2022/12/12 10:21:16;;;;;;;23.65;13.70;;;;;;;2.18;72.79;101128.84;5295142;28;20123;-80
2022/12/12 10:24:01;;;;;;;26.50;14.10;;;;;;;1.48;72.27;101148.25;5274152;28;20028;-80
2022/12/12 10:26:32;;;;;;;23.52;14.55;;;;;;;1.93;73.12;101143.63;5293915;28;20024;-80
2022/12/12 10:29:11;;;;;;;22.87;14.27;;;;;;;2.26;70.61;101139.34;5274115;28;20033;-80
2022/12/12 10:31:57;;;;;;;20.63;14.40;;;;;;;2.64;71.10;101137.78;5290795;28;20076;-80
2022/12/12 10:34:37;;;;;;;21.85;15.18;;;;;;;3.10;70.05;101138.00;5291373;28;20096;-79
2022/12/12 10:37:30;;;;;;;24.27;14.40;;;;;;;3.12;67.10;101133.75;5271722;28;20064;-80
2022/12/12 10:40:08;;;;;;;23.60;14.98;;;;;;;3.76;68.22;101123.13;5287386;28;20048;-80
2022/12/12 10:42:52;;;;;;;24.75;14.23;;;;;;;4.28;66.07;101119.00;5286379;28;20460;-80
2022/12/12 10:45:39;;;;;;;20.88;14.32;;;;;;;5.00;65.93;101121.06;5285746;28;20407;-82
2022/12/12 10:48:10;;;;;;;22.42;14.32;;;;;;;5.03;61.61;101119.38;5286245;28;20043;-81
2022/12/12 10:50:53;;;;;;;20.60;13.23;;;;;;;5.35;59.68;101115.53;5286459;28;20028;-80
2022/12/12 10:53:24;;;;;;;24.77;13.30;;;;;;;5.60;58.87;101112.44;5268429;28;20024;-80
2022/12/12 10:56:06;;;;;;;20.47;13.17;;;;;;;5.79;56.73;101113.50;5286037;28;20021;-80
2022/12/12 10:58:40;;;;;;;23.98;13.25;;;;;;;5.93;55.95;101118.88;5284686;28;20161;-80
2022/12/12 11:01:21;;;;;;;18.38;12.77;;;;;;;6.22;55.97;101114.91;5287663;28;20032;-80
2022/12/12 11:03:53;;;;;;;20.00;13.15;;;;;;;6.03;54.62;101117.28;5288519;28;20474;-81
2022/12/12 11:06:30;;;;;;;21.52;14.05;;;;;;;5.46;55.04;101121.72;5290705;28;20039;-81
2022/12/12 11:09:06;;;;;;;20.35;11.70;;;;;;;6.17;55.77;101107.94;5298825;28;20032;-79
2022/12/12 11:11:38;;;;;;;21.40;13.13;;;;;;;6.00;53.95;101112.94;5298432;28;20477;-80
2022/12/12 11:14:31;;;;;;;22.47;13.27;;;;;;;6.89;57.33;101109.44;5276246;28;20074;-80
2022/12/12 11:17:18;;;;;;;;;;;;;;;7.26;55.55;101099.31;5290143;28;20021;-80
2022/12/12 11:19:52;;;;;;;17.55;12.15;;;;;;;7.21;50.08;101104.50;5288679;28;20065;-81
2022/12/12 11:22:25;;;;;;;18.25;11.98;;;;;;;7.88;50.64;101100.47;5287797;28;20071;-81
2022/12/12 11:24:56;;;;;;;17.60;12.15;;;;;;;8.17;48.16;101099.69;5286481;28;20021;-80
2022/12/12 11:27:36;;;;;;;21.00;13.10;;;;;;;7.96;48.06;101097.91;5268552;28;20486;-80
2022/12/12 11:30:22;;;;;;;18.33;11.95;;;;;;;8.86;49.49;101102.38;5285936;28;20025;-80
2022/12/12 11:32:55;;;;;;;18.27;12.02;;;;;;;8.64;46.35;101108.44;5286494;28;20099;-80
2022/12/12 11:35:37;;;;;;;19.13;12.73;;;;;;;8.79;45.19;101099.78;5285276;28;20028;-80
2022/12/12 11:38:20;;;;;;;18.08;11.48;;;;;;;9.33;46.95;101097.09;5284904;28;20078;-81
2022/12/12 11:41:02;;;;;;;18.80;12.18;;;;;;;9.66;45.65;101085.72;5285126;28;20028;-81
2022/12/12 11:43:36;;;;;;;21.73;12.10;;;;;;;9.59;43.36;101089.22;5267810;28;20032;-80
2022/12/12 11:46:14;;;;;;;19.67;12.80;;;;;;;9.64;43.34;101083.13;5268630;28;20024;-81
2022/12/12 11:48:46;;;;;;;20.27;13.10;;;;;;;9.62;41.84;101089.19;5285533;28;20029;-80
2022/12/12 11:51:29;;;;;;;16.43;11.80;;;;;;;9.90;41.69;101084.75;5285694;28;20432;-80
2022/12/12 11:54:04;;;;;;;23.13;12.27;;;;;;;10.56;41.06;101081.72;5287663;28;20033;-81
2022/12/12 11:56:36;;;;;;;18.92;12.73;;;;;;;9.91;40.25;101083.00;5287751;28;20418;-81
2022/12/12 11:59:19;;;;;;;15.57;11.77;;;;;;;8.81;42.71;101077.28;5288599;28;20052;-81
2022/12/12 12:02:18;;;;;;;21.38;12.63;;;;;;;9.88;43.96;101076.06;5292634;28;20040;-81